createdAt,value
2018-12-20T00:02:28.586Z,17.50
2018-12-20T00:05:09.677Z,19.17
2018-12-20T00:07:47.316Z,15.07
2018-12-20T00:10:26.225Z,16.37
2018-12-20T00:13:02.186Z,17.70
2018-12-20T00:15:34.907Z,19.40
2018-12-20T00:18:08.031Z,17.50
2018-12-20T00:20:49.457Z,17.80
2018-12-20T00:23:22.100Z,15.77
2018-12-20T00:25:54.940Z,15.73
2018-12-20T00:28:40.354Z,17.50
2018-12-20T00:31:15.107Z,17.37
2018-12-20T00:33:50.043Z,17.50
2018-12-20T00:36:28.943Z,18.47
2018-12-20T00:39:06.817Z,16.87
2018-12-20T00:41:42.248Z,18.00
2018-12-20T00:44:17.795Z,17.83
2018-12-20T00:46:53.472Z,17.73
2018-12-20T00:49:32.407Z,16.73
2018-12-20T00:52:13.942Z,18.27
2018-12-20T00:54:48.753Z,16.43
2018-12-20T00:57:19.374Z,16.70
2018-12-20T01:02:43.681Z,16.43
2018-12-20T01:05:19.294Z,17.93
2018-12-20T01:08:01.644Z,15.93
2018-12-20T01:10:34.448Z,16.77
2018-12-20T01:13:09.727Z,18.67
2018-12-20T01:15:54.712Z,17.03
2018-12-20T01:18:30.500Z,17.87
2018-12-20T01:21:00.952Z,16.40
2018-12-20T01:23:37.511Z,17.57
2018-12-20T01:26:13.440Z,17.93
2018-12-20T01:28:49.232Z,16.70
2018-12-20T01:31:24.944Z,16.67
2018-12-20T01:34:05.935Z,17.67
2018-12-20T01:36:51.626Z,16.90
2018-12-20T01:39:28.354Z,18.70
2018-12-20T01:42:09.549Z,16.47
2018-12-20T01:44:53.215Z,16.47
2018-12-20T01:50:25.931Z,19.13
2018-12-20T01:53:07.057Z,18.67
2018-12-20T01:55:41.510Z,16.63
2018-12-20T01:58:20.869Z,19.20
2018-12-20T02:01:04.084Z,18.23
2018-12-20T02:03:40.935Z,17.43
2018-12-20T02:06:16.824Z,17.83
2018-12-20T02:08:52.117Z,17.67
2018-12-20T02:11:29.194Z,18.67
2018-12-20T02:14:05.089Z,16.80
2018-12-20T02:16:38.885Z,17.63
2018-12-20T02:19:18.419Z,17.87
2018-12-20T02:22:00.650Z,18.50
2018-12-20T02:27:14.428Z,18.23
2018-12-20T02:29:49.217Z,20.27
2018-12-20T02:32:28.262Z,18.60
2018-12-20T02:35:04.071Z,17.97
2018-12-20T02:37:37.535Z,19.10
2018-12-20T02:40:12.760Z,19.20
2018-12-20T02:42:45.510Z,16.03
2018-12-20T02:45:28.586Z,16.13
2018-12-20T02:48:03.496Z,16.40
2018-12-20T02:50:36.133Z,16.60
2018-12-20T02:53:11.899Z,16.53
2018-12-20T02:55:42.994Z,15.73
2018-12-20T02:58:14.443Z,17.70
2018-12-20T03:00:51.816Z,18.37
2018-12-20T03:03:25.472Z,17.73
2018-12-20T03:06:01.167Z,17.70
2018-12-20T03:08:34.770Z,17.67
2018-12-20T03:11:09.919Z,17.70
2018-12-20T03:13:44.804Z,16.83
2018-12-20T03:24:56.940Z,18.33
2018-12-20T03:27:33.698Z,19.00
2018-12-20T03:33:06.469Z,18.60
2018-12-20T03:35:36.942Z,17.97
2018-12-20T03:38:12.530Z,18.43
2018-12-20T03:40:54.857Z,18.00
2018-12-20T03:43:28.439Z,18.77
2018-12-20T03:46:03.757Z,18.77
2018-12-20T03:48:37.339Z,20.33
2018-12-20T03:51:14.495Z,17.00
2018-12-20T03:53:49.647Z,16.63
2018-12-20T03:56:24.508Z,17.77
2018-12-20T03:58:59.245Z,16.33
2018-12-20T04:01:32.029Z,16.43
2018-12-20T04:04:07.359Z,18.23
2018-12-20T04:06:38.055Z,17.47
2018-12-20T04:09:15.313Z,16.83
2018-12-20T04:11:50.461Z,14.93
2018-12-20T04:14:25.441Z,19.30
2018-12-20T04:17:01.905Z,18.87
2018-12-20T04:19:37.460Z,17.63
2018-12-20T04:22:16.474Z,17.13
2018-12-20T04:24:55.812Z,17.87
2018-12-20T04:27:34.941Z,16.70
2018-12-20T04:30:09.703Z,16.97
2018-12-20T04:35:13.355Z,17.60
2018-12-20T04:37:44.320Z,17.30
2018-12-20T04:40:17.004Z,19.87
2018-12-20T04:42:52.379Z,17.43
2018-12-20T04:45:35.197Z,17.70
2018-12-20T04:48:15.017Z,18.67
2018-12-20T04:51:00.094Z,17.57
2018-12-20T04:53:43.228Z,19.93
2018-12-20T04:56:16.463Z,17.83
2018-12-20T04:58:47.326Z,17.00
2018-12-20T05:01:23.010Z,17.17
2018-12-20T05:04:04.665Z,17.27
2018-12-20T05:06:39.795Z,19.47
2018-12-20T05:09:15.487Z,18.90
2018-12-20T05:11:48.269Z,18.00
2018-12-20T05:14:31.622Z,20.40
2018-12-20T05:17:07.524Z,18.73
2018-12-20T05:19:42.640Z,19.63
2018-12-20T05:22:15.551Z,19.57
2018-12-20T05:24:50.340Z,19.23
2018-12-20T05:27:25.418Z,18.40
2018-12-20T05:30:02.610Z,20.83
2018-12-20T05:32:45.654Z,18.63
2018-12-20T05:35:19.106Z,20.37
2018-12-20T05:40:27.537Z,19.67
2018-12-20T05:43:06.926Z,21.27
2018-12-20T05:45:42.459Z,21.00
2018-12-20T05:48:12.966Z,20.77
2018-12-20T05:50:48.562Z,19.50
2018-12-20T05:53:23.575Z,21.93
2018-12-20T05:55:57.133Z,21.67
2018-12-20T05:58:40.533Z,21.23
2018-12-20T06:01:15.953Z,19.00
2018-12-20T06:03:46.824Z,20.20
2018-12-20T06:06:19.513Z,19.30
2018-12-20T06:08:54.651Z,20.30
2018-12-20T06:11:29.553Z,19.67
2018-12-20T06:17:18.141Z,19.03
2018-12-20T06:20:00.860Z,20.63
2018-12-20T06:22:36.587Z,17.73
2018-12-20T06:25:17.431Z,18.00
2018-12-20T06:27:56.140Z,18.70
2018-12-20T06:30:35.099Z,19.53
2018-12-20T06:33:16.169Z,20.17
2018-12-20T06:35:46.747Z,20.10
2018-12-20T06:38:22.435Z,19.37
2018-12-20T06:40:57.906Z,19.10
2018-12-20T06:43:33.048Z,20.53
2018-12-20T06:46:07.939Z,24.40
2018-12-20T06:48:46.806Z,21.03
2018-12-20T06:51:19.560Z,20.30
2018-12-20T06:53:54.607Z,18.83
2018-12-20T06:59:21.828Z,20.23
2018-12-20T07:02:00.803Z,19.30
2018-12-20T07:04:42.046Z,17.40
2018-12-20T07:07:17.182Z,16.83
2018-12-20T07:09:53.030Z,11.43
2018-12-20T07:12:23.687Z,12.50
2018-12-20T07:14:53.668Z,13.73
2018-12-20T07:17:29.104Z,10.60
2018-12-20T07:20:10.055Z,10.53
2018-12-20T07:22:48.744Z,8.87
2018-12-20T07:25:23.624Z,8.27
2018-12-20T07:27:58.432Z,12.43
2018-12-20T07:30:33.307Z,15.27
2018-12-20T07:33:09.665Z,8.20
2018-12-20T07:35:43.358Z,8.27
2018-12-20T07:38:19.186Z,5.17
2018-12-20T07:43:29.807Z,7.30
2018-12-20T07:46:12.649Z,5.57
2018-12-20T07:48:53.402Z,5.83
2018-12-20T07:54:21.304Z,6.33
2018-12-20T07:56:56.800Z,5.83
2018-12-20T07:59:35.591Z,6.70
2018-12-20T08:02:10.724Z,5.33
2018-12-20T08:04:45.802Z,6.67
2018-12-20T08:07:21.248Z,5.70
2018-12-20T08:09:56.812Z,6.03
2018-12-20T08:12:27.536Z,6.73
2018-12-20T08:15:04.616Z,5.77
2018-12-20T08:17:39.712Z,5.73
2018-12-20T08:20:14.729Z,4.93
2018-12-20T08:22:49.764Z,5.53
2018-12-20T08:25:24.516Z,5.80
2018-12-20T08:27:59.427Z,5.87
2018-12-20T08:30:34.371Z,6.40
2018-12-20T08:33:15.209Z,5.73
2018-12-20T08:35:45.860Z,5.43
2018-12-20T08:38:21.011Z,5.80
2018-12-20T08:41:01.933Z,7.60
2018-12-20T08:43:38.288Z,8.57
2018-12-20T08:46:08.553Z,4.60
2018-12-20T08:48:45.988Z,11.33
2018-12-20T08:51:22.031Z,4.80
2018-12-20T08:53:52.307Z,5.03
2018-12-20T08:56:34.668Z,4.23
2018-12-20T08:59:10.175Z,4.30
2018-12-20T09:01:45.209Z,4.27
2018-12-20T09:07:07.023Z,4.20
2018-12-20T09:09:42.091Z,3.73
2018-12-20T09:15:24.656Z,4.30
2018-12-20T09:20:51.683Z,4.63
2018-12-20T09:23:28.349Z,3.57
2018-12-20T09:26:03.622Z,4.27
2018-12-20T09:28:36.561Z,3.90
2018-12-20T09:31:11.420Z,3.37
2018-12-20T09:33:52.321Z,4.43
2018-12-20T09:36:24.804Z,4.17
2018-12-20T09:38:55.892Z,4.20
2018-12-20T09:41:28.977Z,4.57
2018-12-20T09:44:04.120Z,4.00
2018-12-20T09:54:14.295Z,4.83
2018-12-20T09:56:49.491Z,3.13
2018-12-20T09:59:24.199Z,3.73
2018-12-20T10:02:05.351Z,3.37
2018-12-20T10:04:36.219Z,2.87
2018-12-20T10:07:11.369Z,2.57
2018-12-20T10:09:46.187Z,2.60
2018-12-20T10:12:25.164Z,2.90
2018-12-20T10:14:55.859Z,3.23
2018-12-20T10:17:29.072Z,2.90
2018-12-20T10:20:14.241Z,2.57
2018-12-20T10:22:46.888Z,3.77
2018-12-20T10:25:23.954Z,3.33
2018-12-20T10:27:56.696Z,2.57
2018-12-20T10:30:32.987Z,4.20
2018-12-20T10:33:03.496Z,2.83
2018-12-20T10:35:34.469Z,3.20
2018-12-20T10:38:07.424Z,2.60
2018-12-20T10:40:48.573Z,3.90
2018-12-20T10:43:33.678Z,4.17
2018-12-20T10:46:06.265Z,4.73
2018-12-20T10:48:37.440Z,3.70
2018-12-20T10:51:12.876Z,5.60
2018-12-20T10:53:53.776Z,6.47
2018-12-20T10:59:01.620Z,4.13
2018-12-20T11:01:41.795Z,3.33
2018-12-20T11:04:22.513Z,4.23
2018-12-20T11:06:59.128Z,2.63
2018-12-20T11:09:43.109Z,2.97
2018-12-20T11:12:23.813Z,2.87
2018-12-20T11:14:59.427Z,3.10
2018-12-20T11:17:37.525Z,2.77
2018-12-20T11:20:08.331Z,2.63
2018-12-20T11:22:49.482Z,2.97
2018-12-20T11:25:24.392Z,2.50
2018-12-20T11:28:01.769Z,2.33
2018-12-20T11:30:38.571Z,1.97
2018-12-20T11:33:19.746Z,2.87
2018-12-20T11:35:56.051Z,2.20
2018-12-20T11:38:31.924Z,2.77
2018-12-20T11:41:04.701Z,3.00
2018-12-20T11:43:37.487Z,1.83
2018-12-20T11:46:13.017Z,2.83
2018-12-20T11:48:48.474Z,2.90
2018-12-20T11:51:24.590Z,2.47
2018-12-20T11:53:55.063Z,4.83
2018-12-20T11:56:28.048Z,2.47
2018-12-20T11:58:59.026Z,1.63
2018-12-20T12:01:34.338Z,3.37
2018-12-20T12:04:09.190Z,2.17
2018-12-20T12:06:39.903Z,1.97
2018-12-20T12:09:21.073Z,2.40
2018-12-20T12:11:55.938Z,2.00
2018-12-20T12:14:32.749Z,2.37
2018-12-20T12:17:03.511Z,3.43
2018-12-20T12:19:40.570Z,3.37
2018-12-20T12:22:11.384Z,3.20
2018-12-20T12:24:50.252Z,2.40
2018-12-20T12:27:23.163Z,1.73
2018-12-20T12:29:58.537Z,3.40
2018-12-20T12:32:34.247Z,2.93
2018-12-20T12:35:13.290Z,2.27
2018-12-20T12:37:48.391Z,2.33
2018-12-20T12:40:23.566Z,2.00
2018-12-20T12:42:57.363Z,2.17
2018-12-20T12:45:30.187Z,2.40
2018-12-20T12:48:04.054Z,2.50
2018-12-20T12:50:37.551Z,2.00
2018-12-20T12:53:12.904Z,1.87
2018-12-20T12:55:48.044Z,2.53
2018-12-20T12:58:23.315Z,2.60
2018-12-20T13:00:58.152Z,5.93
2018-12-20T13:03:41.186Z,2.13
2018-12-20T13:06:23.095Z,1.70
2018-12-20T13:09:00.678Z,2.77
2018-12-20T13:11:37.639Z,2.17
2018-12-20T13:14:12.729Z,1.40
2018-12-20T13:16:44.427Z,1.97
2018-12-20T13:19:20.237Z,2.23
2018-12-20T13:21:53.155Z,1.80
2018-12-20T13:24:28.833Z,2.07
2018-12-20T13:26:59.455Z,2.00
2018-12-20T13:29:34.872Z,1.30
2018-12-20T13:32:09.729Z,1.20
2018-12-20T13:34:45.728Z,1.10
2018-12-20T13:37:18.375Z,1.83
2018-12-20T13:39:55.484Z,1.23
2018-12-20T13:45:25.806Z,1.53
2018-12-20T13:48:00.943Z,1.20
2018-12-20T13:50:35.952Z,4.60
2018-12-20T13:53:10.683Z,1.20
2018-12-20T13:55:45.917Z,1.03
2018-12-20T13:58:16.334Z,0.90
2018-12-20T14:00:57.637Z,1.40
2018-12-20T14:03:29.278Z,1.30
2018-12-20T14:06:04.028Z,0.97
2018-12-20T14:08:35.246Z,1.10
2018-12-20T14:11:07.973Z,1.40
2018-12-20T14:13:42.943Z,1.00
2018-12-20T14:16:17.996Z,0.90
2018-12-20T14:18:52.826Z,1.23
2018-12-20T14:21:27.676Z,1.10
2018-12-20T14:24:06.352Z,1.20
2018-12-20T14:26:43.119Z,2.10
2018-12-20T14:29:22.064Z,2.23
2018-12-20T14:31:57.205Z,2.50
2018-12-20T14:34:33.292Z,2.50
2018-12-20T14:40:12.800Z,1.90
2018-12-20T14:42:54.283Z,1.33
2018-12-20T14:45:36.353Z,1.70
2018-12-20T14:48:16.178Z,2.73
2018-12-20T14:51:16.214Z,1.63
2018-12-20T14:53:54.143Z,3.50
2018-12-20T14:56:32.980Z,2.10
2018-12-20T14:59:11.723Z,2.10
2018-12-20T15:01:48.812Z,3.27
2018-12-20T15:04:24.046Z,1.70
2018-12-20T15:06:59.740Z,3.27
2018-12-20T15:09:38.940Z,1.60
2018-12-20T15:12:14.576Z,1.40
2018-12-20T15:14:49.688Z,1.87
2018-12-20T15:17:30.493Z,1.97
2018-12-20T15:20:01.347Z,1.47
2018-12-20T15:22:42.370Z,2.17
2018-12-20T15:25:23.246Z,2.57
2018-12-20T15:28:01.938Z,2.60
2018-12-20T15:30:36.922Z,3.37
2018-12-20T15:33:09.491Z,4.23
2018-12-20T15:35:40.768Z,2.70
2018-12-20T15:38:13.663Z,3.03
2018-12-20T15:40:55.188Z,2.47
2018-12-20T15:43:30.102Z,1.90
2018-12-20T15:46:09.236Z,2.58
2018-12-20T15:48:44.456Z,2.17
2018-12-20T15:51:19.203Z,2.23
2018-12-20T15:56:59.251Z,2.57
2018-12-20T16:02:21.851Z,1.83
2018-12-20T16:07:44.376Z,3.00
2018-12-20T16:10:19.268Z,1.93
2018-12-20T16:12:52.195Z,2.67
2018-12-20T16:15:29.551Z,2.33
2018-12-20T16:20:51.679Z,2.43
2018-12-20T16:23:32.668Z,4.60
2018-12-20T16:26:11.419Z,2.87
2018-12-20T16:28:46.335Z,1.70
2018-12-20T16:31:17.156Z,2.10
2018-12-20T16:33:52.800Z,3.27
2018-12-20T16:36:27.711Z,5.20
2018-12-20T16:39:04.767Z,2.17
2018-12-20T16:41:39.539Z,2.13
2018-12-20T16:44:14.443Z,1.50
2018-12-20T16:47:02.116Z,1.80
2018-12-20T16:49:33.513Z,1.90
2018-12-20T16:52:10.805Z,1.73
2018-12-20T16:54:45.727Z,1.80
2018-12-20T16:57:20.628Z,2.10
2018-12-20T16:59:56.484Z,2.50
2018-12-20T17:02:31.675Z,2.03
2018-12-20T17:05:12.738Z,2.33
2018-12-20T17:07:48.606Z,2.40
2018-12-20T17:10:23.635Z,2.13
2018-12-20T17:12:58.727Z,1.77
2018-12-20T17:15:36.574Z,2.40
2018-12-20T17:18:11.704Z,2.07
2018-12-20T17:23:54.444Z,3.10
2018-12-20T17:26:29.292Z,3.63
2018-12-20T17:29:10.171Z,3.00
2018-12-20T17:31:49.035Z,2.77
2018-12-20T17:34:24.644Z,2.67
2018-12-20T17:36:59.601Z,2.40
2018-12-20T17:39:40.367Z,2.30
2018-12-20T17:42:15.283Z,3.00
2018-12-20T17:44:52.720Z,3.00
2018-12-20T17:47:28.819Z,4.90
2018-12-20T17:50:01.775Z,1.50
2018-12-20T17:52:42.970Z,3.07
2018-12-20T17:55:27.943Z,2.37
2018-12-20T17:58:06.857Z,2.60
2018-12-20T18:00:40.313Z,2.60
2018-12-20T18:03:15.676Z,1.80
2018-12-20T18:05:59.089Z,3.10
2018-12-20T18:08:40.981Z,2.83
2018-12-20T18:11:22.240Z,2.37
2018-12-20T18:14:03.396Z,2.20
2018-12-20T18:16:40.379Z,2.40
2018-12-20T18:19:15.396Z,2.10
2018-12-20T18:21:56.718Z,2.07
2018-12-20T18:24:31.547Z,3.30
2018-12-20T18:27:04.304Z,2.30
2018-12-20T18:29:35.645Z,1.80
2018-12-20T18:32:12.635Z,1.83
2018-12-20T18:34:58.907Z,3.20
2018-12-20T18:37:38.849Z,2.47
2018-12-20T18:40:12.115Z,1.47
2018-12-20T18:42:47.592Z,2.40
2018-12-20T18:45:19.398Z,2.70
2018-12-20T18:47:54.977Z,6.27
2018-12-20T18:50:30.112Z,2.27
2018-12-20T18:53:16.278Z,2.63
2018-12-20T18:55:49.787Z,3.30
2018-12-20T18:58:20.203Z,2.17
2018-12-20T19:00:56.947Z,3.23
2018-12-20T19:03:35.904Z,1.93
2018-12-20T19:06:07.758Z,2.27
2018-12-20T19:08:45.210Z,1.97
2018-12-20T19:11:19.112Z,1.70
2018-12-20T19:14:00.593Z,3.03
2018-12-20T19:16:33.107Z,2.77
2018-12-20T19:19:08.861Z,3.60
2018-12-20T19:21:45.179Z,3.37
2018-12-20T19:24:18.247Z,4.37
2018-12-20T19:26:54.205Z,3.13
2018-12-20T19:29:30.348Z,3.30
2018-12-20T19:32:06.454Z,2.67
2018-12-20T19:34:46.371Z,2.90
2018-12-20T19:37:21.943Z,2.63
2018-12-20T19:40:02.106Z,2.70
2018-12-20T19:42:38.277Z,3.43
2018-12-20T19:45:13.679Z,4.43
2018-12-20T19:47:54.081Z,2.87
2018-12-20T19:50:38.290Z,1.80
2018-12-20T19:53:24.344Z,1.90
2018-12-20T19:56:00.039Z,2.10
2018-12-20T19:58:36.148Z,3.33
2018-12-20T20:01:18.304Z,2.57
2018-12-20T20:03:54.368Z,2.67
2018-12-20T20:06:46.631Z,2.50
2018-12-20T20:09:25.425Z,2.80
2018-12-20T20:12:01.348Z,2.60
2018-12-20T20:14:38.400Z,2.70
2018-12-20T20:17:12.351Z,2.73
2018-12-20T20:19:48.088Z,2.57
2018-12-20T20:22:34.561Z,2.80
2018-12-20T20:25:16.304Z,3.23
2018-12-20T20:27:52.960Z,3.00
2018-12-20T20:30:25.015Z,2.90
2018-12-20T20:33:01.169Z,2.50
2018-12-20T20:35:44.760Z,5.80
2018-12-20T20:38:24.830Z,6.47
2018-12-20T20:40:56.654Z,7.63
2018-12-20T20:43:32.925Z,4.17
2018-12-20T20:46:08.948Z,3.77
2018-12-20T20:48:59.075Z,6.17
2018-12-20T20:51:38.541Z,2.70
2018-12-20T20:54:14.033Z,2.50
2018-12-20T20:56:54.175Z,2.57
2018-12-20T20:59:30.270Z,1.60
2018-12-20T21:02:10.448Z,2.07
2018-12-20T21:04:52.850Z,1.70
2018-12-20T21:07:28.729Z,2.20
2018-12-20T21:10:06.822Z,1.47
2018-12-20T21:12:50.430Z,2.20
2018-12-20T21:15:26.354Z,1.43
2018-12-20T21:18:14.423Z,27.43
2018-12-20T21:20:50.416Z,2.47
2018-12-20T21:23:36.284Z,6.17
2018-12-20T21:26:22.979Z,1.97
2018-12-20T21:29:06.526Z,2.07
2018-12-20T21:31:47.406Z,2.00
2018-12-20T21:34:31.325Z,1.80
2018-12-20T21:37:11.328Z,2.90
2018-12-20T21:39:50.309Z,1.70
2018-12-20T21:42:24.208Z,2.50
2018-12-20T21:44:59.776Z,1.97
2018-12-20T21:47:42.128Z,2.17
2018-12-20T21:50:22.087Z,1.60
2018-12-20T21:52:58.139Z,2.37
2018-12-20T21:55:40.294Z,1.60
2018-12-20T21:58:15.990Z,1.70
2018-12-20T22:00:56.209Z,2.77
2018-12-20T22:03:34.371Z,2.70
2018-12-20T22:06:11.477Z,1.83
2018-12-20T22:08:59.495Z,3.03
2018-12-20T22:11:37.127Z,2.73
2018-12-20T22:14:10.531Z,1.97
2018-12-20T22:16:44.452Z,2.47
2018-12-20T22:19:32.130Z,2.27
2018-12-20T22:22:16.488Z,2.70
2018-12-20T22:30:02.557Z,2.73
2018-12-20T22:32:46.631Z,2.43
2018-12-20T22:35:21.285Z,2.57
2018-12-20T22:37:57.400Z,1.90
2018-12-20T22:40:36.572Z,2.33
2018-12-20T22:43:10.451Z,1.67
2018-12-20T22:45:44.630Z,2.10
2018-12-20T22:48:25.011Z,2.07
2018-12-20T22:51:08.972Z,2.00
2018-12-20T22:53:56.709Z,2.70
2018-12-20T22:56:32.409Z,2.33
2018-12-20T22:59:09.467Z,1.40
2018-12-20T23:01:47.983Z,1.43
2018-12-20T23:04:24.811Z,1.57
2018-12-20T23:07:04.418Z,1.57
2018-12-20T23:09:40.556Z,2.03
2018-12-20T23:12:19.130Z,2.13
2018-12-20T23:14:52.853Z,2.00
2018-12-20T23:17:28.602Z,1.50
2018-12-20T23:20:05.032Z,2.13
2018-12-20T23:22:44.581Z,1.50
2018-12-20T23:25:29.125Z,2.53
2018-12-20T23:28:06.836Z,2.27
2018-12-20T23:30:51.218Z,1.60
2018-12-20T23:33:38.072Z,2.53
2018-12-20T23:36:17.923Z,2.47
2018-12-20T23:38:55.405Z,1.70
2018-12-20T23:41:29.240Z,2.07
2018-12-20T23:44:10.876Z,2.47
2018-12-20T23:46:42.453Z,1.73
2018-12-20T23:49:22.996Z,1.53
2018-12-20T23:51:59.096Z,1.77
2018-12-20T23:54:36.112Z,2.13
2018-12-20T23:57:13.260Z,2.17
2018-12-20T23:59:55.616Z,2.10
